createdAt,value
2022-08-21T00:00:51.144Z,97684.25
2022-08-21T00:02:52.508Z,97687.69
2022-08-21T00:04:57.528Z,97679.13
2022-08-21T00:06:59.590Z,97676.47
2022-08-21T00:09:06.032Z,97675.63
2022-08-21T00:11:08.054Z,97679.97
2022-08-21T00:13:09.366Z,97674.88
2022-08-21T00:15:11.203Z,97672.47
2022-08-21T00:17:13.157Z,97672.50
2022-08-21T00:19:14.475Z,97678.50
2022-08-21T00:21:15.859Z,97674.28
2022-08-21T00:23:17.168Z,97673.34
2022-08-21T00:25:19.803Z,97660.56
2022-08-21T00:27:25.571Z,97671.84
2022-08-21T00:29:26.943Z,97669.28
2022-08-21T00:31:28.271Z,97671.91
2022-08-21T00:33:29.569Z,97661.69
2022-08-21T00:35:30.901Z,97665.94
2022-08-21T00:37:32.239Z,97660.84
2022-08-21T00:39:36.808Z,97661.69
2022-08-21T00:41:39.050Z,97654.00
2022-08-21T00:43:40.800Z,97658.38
2022-08-21T00:45:42.162Z,97661.75
2022-08-21T00:47:43.484Z,97661.88
2022-08-21T00:49:44.934Z,97660.16
2022-08-21T00:51:46.274Z,97515.44
2022-08-21T00:53:51.779Z,97668.63
2022-08-21T00:55:56.568Z,97657.44
2022-08-21T00:57:58.007Z,97668.44
2022-08-21T00:59:59.307Z,97656.56
2022-08-21T01:02:00.602Z,97660.97
2022-08-21T01:04:02.483Z,97681.47
2022-08-21T01:06:05.163Z,97666.03
2022-08-21T01:08:06.543Z,97668.72
2022-08-21T01:10:07.838Z,97660.16
2022-08-21T01:12:09.158Z,97669.50
2022-08-21T01:14:13.169Z,97660.16
2022-08-21T01:16:14.470Z,97660.09
2022-08-21T01:18:15.859Z,97661.03
2022-08-21T01:20:17.530Z,97663.59
2022-08-21T01:22:20.438Z,97666.16
2022-08-21T01:24:22.212Z,97659.34
2022-08-21T01:26:23.723Z,97658.56
2022-08-21T01:28:32.582Z,97655.16
2022-08-21T01:30:33.919Z,97663.75
2022-08-21T01:32:35.223Z,97662.94
2022-08-21T01:34:36.572Z,97657.81
2022-08-21T01:36:37.971Z,97660.28
2022-08-21T01:38:39.282Z,97659.34
2022-08-21T01:40:40.601Z,97651.72
2022-08-21T01:42:41.956Z,97579.00
2022-08-21T01:44:43.270Z,97658.69
2022-08-21T01:46:44.567Z,97665.38
2022-08-21T01:48:45.940Z,97657.81
2022-08-21T01:50:47.243Z,97659.44
2022-08-21T01:52:54.197Z,97659.59
2022-08-21T01:54:55.758Z,97658.00
2022-08-21T01:56:57.232Z,97657.69
2022-08-21T01:58:58.549Z,97655.84
2022-08-21T02:00:59.961Z,97660.16
2022-08-21T02:03:01.420Z,97652.47
2022-08-21T02:05:02.725Z,97650.78
2022-08-21T02:07:04.674Z,97657.69
2022-08-21T02:09:09.835Z,97654.22
2022-08-21T02:11:11.162Z,97657.72
2022-08-21T02:13:13.318Z,97653.34
2022-08-21T02:15:15.497Z,97658.53
2022-08-21T02:17:16.881Z,97656.00
2022-08-21T02:19:18.246Z,97662.84
2022-08-21T02:21:19.579Z,97582.69
2022-08-21T02:23:20.878Z,97653.66
2022-08-21T02:25:28.859Z,97651.09
2022-08-21T02:27:30.231Z,97650.31
2022-08-21T02:29:35.414Z,97652.97
2022-08-21T02:31:36.755Z,97653.72
2022-08-21T02:33:38.103Z,97648.66
2022-08-21T02:35:39.424Z,97644.66
2022-08-21T02:37:40.744Z,97651.44
2022-08-21T02:39:42.160Z,97651.44
2022-08-21T02:41:43.474Z,97646.44
2022-08-21T02:43:44.869Z,97645.59
2022-08-21T02:45:46.180Z,97647.38
2022-08-21T02:47:47.478Z,97640.53
2022-08-21T02:49:48.830Z,97638.00
2022-08-21T02:51:50.127Z,97636.28
2022-08-21T02:53:51.731Z,97639.72
2022-08-21T02:55:53.062Z,97638.06
2022-08-21T02:57:54.384Z,97631.28
2022-08-21T02:59:55.697Z,97638.19
2022-08-21T03:01:57.280Z,97633.91
2022-08-21T03:03:58.627Z,97627.00
2022-08-21T03:05:59.959Z,97633.84
2022-08-21T03:08:01.359Z,97644.16
2022-08-21T03:10:02.660Z,97635.66
2022-08-21T03:12:04.651Z,97639.06
2022-08-21T03:14:06.194Z,97646.84
2022-08-21T03:16:10.034Z,97642.66
2022-08-21T03:18:11.994Z,97647.69
2022-08-21T03:20:13.550Z,97649.38
2022-08-21T03:22:14.886Z,97652.81
2022-08-21T03:24:17.666Z,97650.22
2022-08-21T03:26:20.926Z,97646.91
2022-08-21T03:28:22.797Z,97652.16
2022-08-21T03:30:24.147Z,97650.41
2022-08-21T03:32:25.686Z,97652.19
2022-08-21T03:34:27.042Z,97650.47
2022-08-21T03:36:28.352Z,97642.03
2022-08-21T03:38:29.854Z,97657.38
2022-08-21T03:40:31.163Z,97649.75
2022-08-21T03:42:32.467Z,97658.25
2022-08-21T03:44:33.778Z,97653.16
2022-08-21T03:46:35.199Z,97657.44
2022-08-21T03:48:36.498Z,97661.66
2022-08-21T03:50:40.949Z,97663.44
2022-08-21T03:54:44.007Z,97662.72
2022-08-21T03:56:45.327Z,97660.22
2022-08-21T03:58:46.686Z,97661.03
2022-08-21T04:00:47.978Z,97664.50
2022-08-21T04:02:49.779Z,97670.44
2022-08-21T04:04:51.088Z,97663.59
2022-08-21T04:06:52.392Z,97666.03
2022-08-21T04:08:53.690Z,97667.63
2022-08-21T04:10:55.026Z,97664.25
2022-08-21T04:12:56.720Z,97672.06
2022-08-21T04:14:58.175Z,97666.16
2022-08-21T04:16:59.476Z,97668.69
2022-08-21T04:19:00.837Z,97674.63
2022-08-21T04:21:02.191Z,97677.19
2022-08-21T04:25:04.911Z,97676.38
2022-08-21T04:27:06.212Z,97676.38
2022-08-21T04:29:07.647Z,97690.03
2022-08-21T04:31:11.738Z,97687.44
2022-08-21T04:33:13.077Z,97677.28
2022-08-21T04:35:14.378Z,97693.44
2022-08-21T04:37:16.658Z,97696.88
2022-08-21T04:39:17.967Z,97696.97
2022-08-21T04:41:27.886Z,97697.78
2022-08-21T04:43:29.628Z,97702.06
2022-08-21T04:45:30.927Z,97699.50
2022-08-21T04:47:41.840Z,97702.09
2022-08-21T04:49:53.585Z,97708.09
2022-08-21T04:51:54.898Z,97703.00
2022-08-21T04:53:56.256Z,97710.47
2022-08-21T04:55:57.612Z,97712.31
2022-08-21T04:57:59.006Z,97720.00
2022-08-21T05:00:00.307Z,97717.56
2022-08-21T05:02:01.679Z,97719.38
2022-08-21T05:04:03.003Z,97715.88
2022-08-21T05:06:04.311Z,97719.19
2022-08-21T05:10:08.698Z,97719.81
2022-08-21T05:12:10.030Z,97722.44
2022-08-21T05:14:12.274Z,97715.69
2022-08-21T05:16:13.571Z,97719.19
2022-08-21T05:18:14.886Z,97721.84
2022-08-21T05:20:16.211Z,97717.59
2022-08-21T05:22:17.514Z,97716.66
2022-08-21T05:24:18.836Z,97717.66
2022-08-21T05:26:20.166Z,97718.38
2022-08-21T05:28:21.894Z,97715.88
2022-08-21T05:30:23.245Z,97715.88
2022-08-21T05:32:24.978Z,97708.69
2022-08-21T05:34:26.347Z,97719.59
2022-08-21T05:36:27.646Z,97720.47
2022-08-21T05:38:29.523Z,97724.78
2022-08-21T05:40:30.931Z,97729.06
2022-08-21T05:42:32.259Z,97725.66
2022-08-21T05:44:33.567Z,97747.03
2022-08-21T05:46:36.713Z,97722.28
2022-08-21T05:48:38.023Z,97720.72
2022-08-21T05:50:39.421Z,97723.22
2022-08-21T05:54:42.063Z,97730.00
2022-08-21T05:56:45.543Z,97721.50
2022-08-21T05:58:46.904Z,97719.78
2022-08-21T06:00:48.614Z,97718.00
2022-08-21T06:02:51.457Z,97722.16
2022-08-21T06:04:52.929Z,97709.31
2022-08-21T06:06:54.274Z,97712.91
2022-08-21T06:08:55.583Z,97717.25
2022-08-21T06:10:56.976Z,97717.16
2022-08-21T06:12:58.417Z,97714.69
2022-08-21T06:14:59.919Z,97720.56
2022-08-21T06:17:01.244Z,97725.66
2022-08-21T06:19:03.215Z,97734.19
2022-08-21T06:21:04.649Z,97728.25
2022-08-21T06:23:05.949Z,97735.94
2022-08-21T06:25:07.545Z,97746.09
2022-08-21T06:27:09.463Z,97742.59
2022-08-21T06:29:13.507Z,97738.41
2022-08-21T06:31:14.811Z,97743.63
2022-08-21T06:33:18.189Z,97734.47
2022-08-21T06:35:19.647Z,97736.09
2022-08-21T06:37:21.003Z,97737.78
2022-08-21T06:39:25.560Z,97739.41
2022-08-21T06:41:38.981Z,97734.47
2022-08-21T06:43:40.615Z,97732.03
2022-08-21T06:45:41.946Z,97743.09
2022-08-21T06:47:43.290Z,97747.44
2022-08-21T06:49:44.587Z,97736.28
2022-08-21T06:51:45.955Z,97743.97
2022-08-21T06:53:47.320Z,97741.56
2022-08-21T06:55:48.627Z,97741.56
2022-08-21T06:57:51.828Z,97736.53
2022-08-21T06:59:54.094Z,97735.69
2022-08-21T07:01:55.551Z,97745.00
2022-08-21T07:03:56.904Z,97742.34
2022-08-21T07:05:59.450Z,97742.50
2022-08-21T07:08:00.782Z,97741.63
2022-08-21T07:10:02.135Z,97753.34
2022-08-21T07:12:03.449Z,97743.00
2022-08-21T07:14:04.749Z,97743.53
2022-08-21T07:16:06.085Z,97750.88
2022-08-21T07:18:07.386Z,97739.16
2022-08-21T07:20:08.719Z,97738.84
2022-08-21T07:22:10.119Z,97733.81
2022-08-21T07:24:11.429Z,97734.94
2022-08-21T07:26:12.736Z,97731.16
2022-08-21T07:28:14.076Z,97730.19
2022-08-21T07:30:15.379Z,97725.63
2022-08-21T07:32:20.911Z,97726.22
2022-08-21T07:34:22.718Z,97731.91
2022-08-21T07:36:24.402Z,97726.56
2022-08-21T07:38:25.715Z,97730.63
2022-08-21T07:40:27.072Z,97740.47
2022-08-21T07:42:28.375Z,97735.81
2022-08-21T07:44:29.779Z,97738.63
2022-08-21T07:46:31.450Z,97743.06
2022-08-21T07:48:33.071Z,97751.66
2022-08-21T07:50:34.454Z,97745.78
2022-08-21T07:52:35.834Z,97749.25
2022-08-21T07:54:37.179Z,97739.88
2022-08-21T07:56:38.907Z,97739.94
2022-08-21T07:58:40.250Z,97740.75
2022-08-21T08:00:41.550Z,97749.34
2022-08-21T08:02:43.189Z,97735.63
2022-08-21T08:04:50.726Z,97740.75
2022-08-21T08:06:52.375Z,97741.56
2022-08-21T08:08:53.687Z,97744.06
2022-08-21T08:10:57.288Z,97749.09
2022-08-21T08:12:58.900Z,97743.19
2022-08-21T08:15:00.390Z,97744.16
2022-08-21T08:17:02.859Z,97748.31
2022-08-21T08:19:04.466Z,97750.44
2022-08-21T08:21:06.401Z,97750.59
2022-08-21T08:23:07.714Z,97755.81
2022-08-21T08:25:09.831Z,97763.63
2022-08-21T08:27:11.247Z,97747.06
2022-08-21T08:29:12.612Z,97754.06
2022-08-21T08:31:13.927Z,97755.63
2022-08-21T08:33:15.251Z,97768.16
2022-08-21T08:35:16.563Z,97767.00
2022-08-21T08:37:18.454Z,97761.63
2022-08-21T08:39:26.757Z,97756.31
2022-08-21T08:41:31.482Z,97763.69
2022-08-21T08:43:33.159Z,97754.34
2022-08-21T08:45:34.466Z,97754.47
2022-08-21T08:47:35.779Z,97756.75
2022-08-21T08:49:37.114Z,97754.69
2022-08-21T08:51:38.491Z,97749.41
2022-08-21T08:53:39.943Z,97752.50
2022-08-21T08:55:41.289Z,97759.06
2022-08-21T08:57:42.608Z,97751.34
2022-08-21T08:59:44.046Z,97754.41
2022-08-21T09:01:45.455Z,97743.19
2022-08-21T09:03:50.595Z,97740.50
2022-08-21T09:05:51.952Z,97745.66
2022-08-21T09:07:53.264Z,97742.94
2022-08-21T09:09:54.611Z,97741.97
2022-08-21T09:11:55.923Z,97741.66
2022-08-21T09:13:57.244Z,97734.13
2022-08-21T09:15:59.390Z,97744.81
2022-08-21T09:18:00.690Z,97745.25
2022-08-21T09:20:07.319Z,97751.44
2022-08-21T09:22:08.633Z,97750.22
2022-08-21T09:24:11.766Z,97744.03
2022-08-21T09:26:13.079Z,97744.00
2022-08-21T09:28:15.715Z,97741.34
2022-08-21T09:30:17.209Z,97738.75
2022-08-21T09:32:19.553Z,97729.94
2022-08-21T09:34:20.876Z,97732.06
2022-08-21T09:36:22.193Z,97737.25
2022-08-21T09:38:23.858Z,97730.53
2022-08-21T09:40:25.378Z,97733.59
2022-08-21T09:42:27.057Z,97727.63
2022-08-21T09:44:28.387Z,97736.94
2022-08-21T09:46:29.763Z,97726.78
2022-08-21T09:48:32.959Z,97728.53
2022-08-21T09:50:34.645Z,97720.03
2022-08-21T09:52:35.959Z,97723.31
2022-08-21T09:54:37.258Z,97718.19
2022-08-21T09:56:57.459Z,97720.03
2022-08-21T09:58:58.775Z,97715.53
2022-08-21T10:01:00.187Z,97717.19
2022-08-21T10:03:01.567Z,97725.38
2022-08-21T10:05:03.130Z,97719.69
2022-08-21T10:07:04.771Z,97711.28
2022-08-21T10:09:06.083Z,97721.72
2022-08-21T10:11:07.386Z,97720.16
2022-08-21T10:13:08.723Z,97721.06
2022-08-21T10:15:10.025Z,97718.63
2022-08-21T10:17:11.326Z,97720.34
2022-08-21T10:19:12.675Z,97713.56
2022-08-21T10:21:14.019Z,97723.75
2022-08-21T10:23:15.327Z,97716.81
2022-08-21T10:25:16.740Z,97723.47
2022-08-21T10:27:18.091Z,97723.34
2022-08-21T10:29:20.347Z,97724.28
2022-08-21T10:31:21.658Z,97724.97
2022-08-21T10:33:22.998Z,97718.94
2022-08-21T10:35:24.399Z,97722.28
2022-08-21T10:37:25.726Z,97595.72
2022-08-21T10:39:35.823Z,97716.56
2022-08-21T10:41:37.589Z,97724.38
2022-08-21T10:43:39.106Z,97720.16
2022-08-21T10:45:40.440Z,97719.31
2022-08-21T10:47:42.927Z,97714.16
2022-08-21T10:49:44.254Z,97706.44
2022-08-21T10:51:45.563Z,97709.75
2022-08-21T10:53:47.816Z,97719.91
2022-08-21T10:55:49.106Z,97716.50
2022-08-21T10:57:50.418Z,97720.91
2022-08-21T10:59:51.743Z,97716.69
2022-08-21T11:01:53.059Z,97713.44
2022-08-21T11:03:54.399Z,97721.25
2022-08-21T11:05:55.827Z,97719.69
2022-08-21T11:07:57.349Z,97717.25
2022-08-21T11:10:00.870Z,97721.56
2022-08-21T11:12:11.214Z,97707.81
2022-08-21T11:14:13.391Z,97718.84
2022-08-21T11:16:14.757Z,97715.06
2022-08-21T11:18:17.554Z,97714.66
2022-08-21T11:20:18.859Z,97712.38
2022-08-21T11:22:20.203Z,97710.88
2022-08-21T11:24:21.712Z,97708.09
2022-08-21T11:26:23.068Z,97704.03
2022-08-21T11:28:24.390Z,97710.19
2022-08-21T11:30:25.711Z,97706.53
2022-08-21T11:32:27.036Z,97703.09
2022-08-21T11:34:28.350Z,97698.13
2022-08-21T11:36:29.658Z,97707.97
2022-08-21T11:38:31.308Z,97705.13
2022-08-21T11:40:32.794Z,97693.44
2022-08-21T11:42:34.110Z,97708.16
2022-08-21T11:44:35.494Z,97689.41
2022-08-21T11:46:36.848Z,97692.91
2022-08-21T11:48:38.223Z,97685.13
2022-08-21T11:50:39.571Z,97682.47
2022-08-21T11:52:40.926Z,97689.22
2022-08-21T11:54:44.251Z,97688.19
2022-08-21T11:56:45.553Z,97684.53
2022-08-21T11:58:46.912Z,97687.41
2022-08-21T12:00:48.219Z,97688.16
2022-08-21T12:02:49.597Z,97693.28
2022-08-21T12:04:51.049Z,97681.84
2022-08-21T12:06:52.448Z,97679.63
2022-08-21T12:08:53.769Z,97675.38
2022-08-21T12:10:55.087Z,97680.69
2022-08-21T12:12:56.391Z,97687.72
2022-08-21T12:14:57.700Z,97686.13
2022-08-21T12:16:59.024Z,97687.78
2022-08-21T12:19:00.350Z,97687.16
2022-08-21T12:21:01.657Z,97690.59
2022-08-21T12:23:03.008Z,97705.88
2022-08-21T12:25:04.311Z,97697.34
2022-08-21T12:27:05.614Z,97700.03
2022-08-21T12:29:06.971Z,97708.69
2022-08-21T12:31:08.271Z,97700.88
2022-08-21T12:33:09.743Z,97696.53
2022-08-21T12:35:15.482Z,97696.81
2022-08-21T12:37:25.954Z,97696.91
2022-08-21T12:39:27.286Z,97692.81
2022-08-21T12:41:28.590Z,97686.63
2022-08-21T12:43:29.895Z,97693.25
2022-08-21T12:45:31.207Z,97700.25
2022-08-21T12:47:32.562Z,97697.19
2022-08-21T12:49:33.990Z,97697.56
2022-08-21T12:51:35.363Z,97690.94
2022-08-21T12:53:36.682Z,97688.38
2022-08-21T12:55:37.991Z,97691.06
2022-08-21T12:57:39.318Z,97690.47
2022-08-21T12:59:40.676Z,97697.34
2022-08-21T13:01:42.448Z,97693.53
2022-08-21T13:03:43.772Z,97696.72
2022-08-21T13:05:45.081Z,97706.16
2022-08-21T13:07:46.584Z,97696.91
2022-08-21T13:09:47.935Z,97703.06
2022-08-21T13:11:49.598Z,97692.03
2022-08-21T13:13:51.215Z,97697.47
2022-08-21T13:15:54.186Z,97698.78
2022-08-21T13:17:55.583Z,97699.09
2022-08-21T13:19:56.998Z,97697.75
2022-08-21T13:21:58.318Z,97699.13
2022-08-21T13:23:59.623Z,97694.44
2022-08-21T13:26:01.003Z,97699.81
2022-08-21T13:28:02.461Z,97710.16
2022-08-21T13:30:03.867Z,97705.22
2022-08-21T13:32:05.574Z,97703.09
2022-08-21T13:34:09.151Z,97704.00
2022-08-21T13:36:10.518Z,97704.19
2022-08-21T13:38:11.875Z,97692.72
2022-08-21T13:40:14.417Z,97699.81
2022-08-21T13:42:15.900Z,97696.91
2022-08-21T13:44:20.409Z,97697.25
2022-08-21T13:46:22.201Z,97701.22
2022-08-21T13:48:24.292Z,97697.66
2022-08-21T13:50:25.707Z,97697.88
2022-08-21T13:52:29.992Z,97699.78
2022-08-21T13:54:31.371Z,97699.81
2022-08-21T13:56:32.701Z,97705.63
2022-08-21T13:58:36.048Z,97694.44
2022-08-21T14:00:38.366Z,97710.13
2022-08-21T14:02:39.680Z,97696.13
2022-08-21T14:04:44.127Z,97702.06
2022-08-21T14:06:55.170Z,97702.91
2022-08-21T14:08:56.487Z,97698.66
2022-08-21T14:10:57.790Z,97704.84
2022-08-21T14:12:59.431Z,97700.59
2022-08-21T14:15:00.860Z,97707.56
2022-08-21T14:17:02.234Z,97705.97
2022-08-21T14:19:23.527Z,97698.25
2022-08-21T14:21:24.963Z,97700.03
2022-08-21T14:23:26.539Z,97702.75
2022-08-21T14:25:27.903Z,97703.72
2022-08-21T14:27:29.235Z,97712.28
2022-08-21T14:29:34.559Z,97713.13
2022-08-21T14:31:36.047Z,97708.06
2022-08-21T14:33:44.409Z,97702.09
2022-08-21T14:35:45.887Z,97703.88
2022-08-21T14:37:47.263Z,97705.53
2022-08-21T14:39:51.638Z,97691.72
2022-08-21T14:41:53.061Z,97700.97
2022-08-21T14:43:59.850Z,97700.09
2022-08-21T14:46:10.639Z,97704.47
2022-08-21T14:48:11.970Z,97689.09
2022-08-21T14:50:13.326Z,97690.88
2022-08-21T14:52:14.650Z,97697.69
2022-08-21T14:54:15.942Z,97698.50
2022-08-21T14:56:17.304Z,97696.78
2022-08-21T14:58:18.698Z,97700.19
2022-08-21T15:00:20.412Z,97696.09
2022-08-21T15:02:21.715Z,97697.91
2022-08-21T15:04:23.095Z,97691.22
2022-08-21T15:06:24.538Z,97698.09
2022-08-21T15:08:25.903Z,97693.00
2022-08-21T15:10:27.212Z,97694.81
2022-08-21T15:12:28.680Z,97698.41
2022-08-21T15:14:29.985Z,97702.84
2022-08-21T15:16:32.362Z,97701.19
2022-08-21T15:18:33.791Z,97694.41
2022-08-21T15:20:35.131Z,97688.44
2022-08-21T15:22:36.451Z,97699.63
2022-08-21T15:24:38.421Z,97693.59
2022-08-21T15:26:39.747Z,97703.00
2022-08-21T15:28:41.208Z,97704.69
2022-08-21T15:30:42.523Z,97704.66
2022-08-21T15:32:43.822Z,97699.63
2022-08-21T15:34:45.206Z,97693.69
2022-08-21T15:36:46.543Z,97698.06
2022-08-21T15:38:47.844Z,97690.44
2022-08-21T15:40:51.854Z,97696.44
2022-08-21T15:42:53.907Z,97701.63
2022-08-21T15:44:55.203Z,97703.44
2022-08-21T15:46:56.522Z,97697.47
2022-08-21T15:48:59.940Z,97706.94
2022-08-21T15:51:01.525Z,97693.38
2022-08-21T15:53:02.837Z,97703.66
2022-08-21T15:55:04.144Z,97696.88
2022-08-21T15:57:05.536Z,97703.72
2022-08-21T15:59:06.851Z,97698.59
2022-08-21T16:01:09.147Z,97697.75
2022-08-21T16:03:12.763Z,97703.72
2022-08-21T16:05:14.171Z,97701.16
2022-08-21T16:07:15.915Z,97702.00
2022-08-21T16:09:17.273Z,97703.75
2022-08-21T16:11:18.610Z,97702.94
2022-08-21T16:13:20.221Z,97635.47
2022-08-21T16:15:21.546Z,97708.16
2022-08-21T16:17:22.844Z,97709.88
2022-08-21T16:19:24.154Z,97708.16
2022-08-21T16:21:25.543Z,97702.19
2022-08-21T16:23:26.883Z,97694.50
2022-08-21T16:25:28.219Z,97695.34
2022-08-21T16:27:29.519Z,97689.44
2022-08-21T16:29:31.006Z,97697.19
2022-08-21T16:31:32.319Z,97701.47
2022-08-21T16:33:33.625Z,97703.19
2022-08-21T16:35:35.009Z,97688.72
2022-08-21T16:37:36.379Z,97687.88
2022-08-21T16:39:37.730Z,97682.78
2022-08-21T16:41:39.337Z,97683.69
2022-08-21T16:43:40.638Z,97687.09
2022-08-21T16:45:41.938Z,97691.38
2022-08-21T16:47:44.610Z,97703.34
2022-08-21T16:49:47.062Z,97688.81
2022-08-21T16:51:48.995Z,97703.38
2022-08-21T16:53:50.326Z,97699.06
2022-08-21T16:55:51.755Z,97701.63
2022-08-21T16:57:53.064Z,97692.28
2022-08-21T16:59:54.379Z,97688.88
2022-08-21T17:01:55.759Z,97686.38
2022-08-21T17:03:57.634Z,97682.09
2022-08-21T17:05:58.943Z,97683.84
2022-08-21T17:08:00.318Z,97689.75
2022-08-21T17:10:01.702Z,97681.28
2022-08-21T17:12:03.708Z,97690.66
2022-08-21T17:14:05.105Z,97684.75
2022-08-21T17:16:06.547Z,97683.94
2022-08-21T17:18:08.193Z,97689.09
2022-08-21T17:20:09.549Z,97679.75
2022-08-21T17:22:10.861Z,97686.63
2022-08-21T17:24:15.432Z,97583.41
2022-08-21T17:26:16.935Z,97695.22
2022-08-21T17:28:18.299Z,97699.50
2022-08-21T17:30:19.615Z,97696.16
2022-08-21T17:32:21.028Z,97697.03
2022-08-21T17:34:22.335Z,97701.38
2022-08-21T17:36:23.702Z,97710.81
2022-08-21T17:38:25.146Z,97705.75
2022-08-21T17:40:29.267Z,97709.25
2022-08-21T17:42:30.791Z,97703.28
2022-08-21T17:44:32.100Z,97708.41
2022-08-21T17:46:33.407Z,97709.34
2022-08-21T17:48:34.962Z,97704.28
2022-08-21T17:50:36.875Z,97712.84
2022-08-21T17:52:38.325Z,97701.81
2022-08-21T17:54:41.245Z,97703.47
2022-08-21T17:56:42.602Z,97710.38
2022-08-21T17:58:43.922Z,97710.47
2022-08-21T18:00:45.312Z,97709.66
2022-08-21T18:02:46.770Z,97703.72
2022-08-21T18:04:50.426Z,97708.91
2022-08-21T18:06:52.042Z,97710.72
2022-08-21T18:08:53.447Z,97708.16
2022-08-21T18:10:54.758Z,97710.81
2022-08-21T18:12:56.124Z,97716.00
2022-08-21T18:14:57.502Z,97721.13
2022-08-21T18:16:58.798Z,97722.03
2022-08-21T18:19:00.115Z,97727.19
2022-08-21T18:21:01.462Z,97727.25
2022-08-21T18:23:02.791Z,97730.75
2022-08-21T18:25:04.175Z,97723.94
2022-08-21T18:27:05.488Z,97726.56
2022-08-21T18:29:06.796Z,97730.84
2022-08-21T18:31:08.134Z,97731.69
2022-08-21T18:33:09.440Z,97733.44
2022-08-21T18:35:11.328Z,97733.47
2022-08-21T18:37:13.008Z,97731.78
2022-08-21T18:39:35.586Z,97730.13
2022-08-21T18:41:35.625Z,97736.13
2022-08-21T18:43:36.942Z,97737.03
2022-08-21T18:45:38.827Z,97737.03
2022-08-21T18:47:40.139Z,97746.41
2022-08-21T18:49:41.642Z,97737.97
2022-08-21T18:51:45.391Z,97746.53
2022-08-21T18:53:47.849Z,97739.75
2022-08-21T18:55:57.783Z,97747.44
2022-08-21T18:58:06.818Z,97751.72
2022-08-21T19:00:11.874Z,97741.59
2022-08-21T19:02:13.334Z,97750.41
2022-08-21T19:04:40.949Z,97751.56
2022-08-21T19:06:38.197Z,97742.25
2022-08-21T19:08:39.575Z,97735.50
2022-08-21T19:10:42.720Z,97735.47
2022-08-21T19:12:47.102Z,97738.88
2022-08-21T19:14:49.567Z,97746.97
2022-08-21T19:16:54.534Z,97738.25
2022-08-21T19:18:56.170Z,97733.59
2022-08-21T19:21:01.864Z,97732.03
2022-08-21T19:23:03.293Z,97728.69
2022-08-21T19:25:04.632Z,97729.53
2022-08-21T19:27:07.979Z,97734.44
2022-08-21T19:29:09.570Z,97734.22
2022-08-21T19:31:11.027Z,97738.31
2022-08-21T19:33:12.694Z,97733.03
2022-08-21T19:35:24.895Z,97731.06
2022-08-21T19:37:26.220Z,97737.69
2022-08-21T19:39:27.682Z,97756.28
2022-08-21T19:41:29.978Z,97739.22
2022-08-21T19:43:31.274Z,97734.94
2022-08-21T19:45:32.603Z,97739.91
2022-08-21T19:47:34.322Z,97741.19
2022-08-21T19:49:35.702Z,97739.81
2022-08-21T19:51:37.030Z,97737.50
2022-08-21T19:53:38.353Z,97739.78
2022-08-21T19:55:40.865Z,97743.09
2022-08-21T19:57:42.223Z,97741.63
2022-08-21T19:59:43.542Z,97749.88
2022-08-21T20:01:45.119Z,97756.47
2022-08-21T20:03:54.494Z,97749.31
2022-08-21T20:05:56.115Z,97749.09
2022-08-21T20:07:57.491Z,97746.06
2022-08-21T20:09:58.839Z,97746.66
2022-08-21T20:12:00.142Z,97754.25
2022-08-21T20:14:01.470Z,97760.25
2022-08-21T20:16:02.775Z,97751.78
2022-08-21T20:18:04.570Z,97755.28
2022-08-21T20:20:07.719Z,97756.16
2022-08-21T20:22:09.895Z,97757.03
2022-08-21T20:24:11.230Z,97750.25
2022-08-21T20:26:16.257Z,97751.09
2022-08-21T20:28:17.935Z,97748.56
2022-08-21T20:30:23.035Z,97745.22
2022-08-21T20:32:24.363Z,97740.19
2022-08-21T20:34:25.688Z,97753.00
2022-08-21T20:36:27.979Z,97603.25
2022-08-21T20:38:29.284Z,97758.19
2022-08-21T20:40:33.039Z,97754.00
2022-08-21T20:42:34.747Z,97749.66
2022-08-21T20:44:36.058Z,97748.81
2022-08-21T20:46:37.395Z,97751.44
2022-08-21T20:48:49.092Z,97748.97
2022-08-21T20:50:51.222Z,97756.66
2022-08-21T20:52:52.602Z,97759.19
2022-08-21T20:54:54.015Z,97757.53
2022-08-21T20:56:57.504Z,97760.91
2022-08-21T20:58:58.850Z,97766.88
2022-08-21T21:01:01.134Z,97759.31
2022-08-21T21:03:04.237Z,97753.41
2022-08-21T21:05:06.267Z,97754.19
2022-08-21T21:07:09.177Z,97746.53
2022-08-21T21:09:10.960Z,97750.84
2022-08-21T21:11:13.738Z,97768.78
2022-08-21T21:13:15.138Z,97760.34
2022-08-21T21:15:16.463Z,97760.38
2022-08-21T21:17:29.264Z,97757.03
2022-08-21T21:19:35.555Z,97757.97
2022-08-21T21:21:38.468Z,97757.09
2022-08-21T21:23:39.806Z,97760.53
2022-08-21T21:25:41.167Z,97771.66
2022-08-21T21:27:42.502Z,97760.63
2022-08-21T21:29:50.337Z,97756.41
2022-08-21T21:31:55.321Z,97753.09
2022-08-21T21:33:56.631Z,97750.53
2022-08-21T21:35:57.927Z,97765.94
2022-08-21T21:37:59.245Z,97760.91
2022-08-21T21:40:01.405Z,97755.56
2022-08-21T21:42:02.835Z,97759.47
2022-08-21T21:44:05.658Z,97761.84
2022-08-21T21:46:06.958Z,97763.66
2022-08-21T21:48:08.710Z,97764.63
2022-08-21T21:50:14.467Z,97762.19
2022-08-21T21:52:20.370Z,97764.69
2022-08-21T21:54:23.051Z,97764.69
2022-08-21T21:56:29.111Z,97752.81
2022-08-21T21:58:30.616Z,97764.00
2022-08-21T22:00:34.730Z,97759.84
2022-08-21T22:02:36.043Z,97755.63
2022-08-21T22:04:37.493Z,97762.47
2022-08-21T22:06:41.479Z,97762.47
2022-08-21T22:08:48.799Z,97635.66
2022-08-21T22:10:52.621Z,97760.81
2022-08-21T22:12:55.028Z,97756.59
2022-08-21T22:14:56.655Z,97762.47
2022-08-21T22:16:57.996Z,97753.94
2022-08-21T22:19:00.319Z,97759.84
2022-08-21T22:21:02.782Z,97756.50
2022-08-21T22:23:05.103Z,97758.31
2022-08-21T22:25:06.440Z,97753.25
2022-08-21T22:27:07.840Z,97755.03
2022-08-21T22:29:09.151Z,97751.56
2022-08-21T22:31:11.099Z,97748.19
2022-08-21T22:33:12.452Z,97751.56
2022-08-21T22:35:13.810Z,97756.69
2022-08-21T22:37:15.635Z,97742.25
2022-08-21T22:39:18.150Z,97753.34
2022-08-21T22:41:19.454Z,97749.94
2022-08-21T22:43:21.754Z,97744.03
2022-08-21T22:45:23.366Z,97750.09
2022-08-21T22:47:25.852Z,97749.25
2022-08-21T22:49:27.222Z,97740.91
2022-08-21T22:51:30.041Z,97737.50
2022-08-21T22:53:33.832Z,97743.47
2022-08-21T22:55:35.195Z,97739.22
2022-08-21T22:57:36.512Z,97746.94
2022-08-21T22:59:39.937Z,97739.31
2022-08-21T23:01:41.327Z,97741.94
2022-08-21T23:03:43.755Z,97744.41
2022-08-21T23:05:45.590Z,97739.91
2022-08-21T23:07:49.782Z,97738.06
2022-08-21T23:09:53.174Z,97733.91
2022-08-21T23:11:55.558Z,97738.19
2022-08-21T23:13:58.018Z,97734.69
2022-08-21T23:15:59.343Z,97738.88
2022-08-21T23:18:01.054Z,97742.31
2022-08-21T23:20:02.403Z,97736.44
2022-08-21T23:22:04.532Z,97733.16
2022-08-21T23:24:05.951Z,97725.56
2022-08-21T23:26:22.782Z,97728.13
2022-08-21T23:28:26.447Z,97738.44
2022-08-21T23:30:27.785Z,97730.75
2022-08-21T23:32:35.649Z,97728.19
2022-08-21T23:34:40.592Z,97729.13
2022-08-21T23:37:02.256Z,97732.63
2022-08-21T23:39:05.183Z,97720.84
2022-08-21T23:41:11.204Z,97730.94
2022-08-21T23:43:12.686Z,97739.56
2022-08-21T23:45:14.451Z,97737.06
2022-08-21T23:47:19.088Z,97737.13
2022-08-21T23:49:20.432Z,97737.13
2022-08-21T23:51:21.782Z,97736.31
2022-08-21T23:53:24.055Z,97737.94
2022-08-21T23:55:25.439Z,97737.84
2022-08-21T23:57:31.796Z,97735.25
2022-08-21T23:59:49.532Z,97739.44
